This is the latest recevied weather packets stored in our database for station/object OE3UKW. If no packets are shown the sender has not sent any weather packets the latest 10 day(s).
| Time | Temp. | Humidity | Pressure | Rain* | Wind** | Luminosity | Snow |
|---|---|---|---|---|---|---|---|
| 1777833673 | 18.89° C | 33% | 1017 hPa | 0 mm | - | 0 W/m² | - |
| 1777833073 | 19.44° C | 32% | 1017 hPa | 0 mm | - | 0 W/m² | - |
| 1777832473 | 19.44° C | 32% | 1016.9 hPa | 0 mm | - | 0 W/m² | - |
| 1777831873 | 20° C | 31% | 1016.8 hPa | 0 mm | - | 0 W/m² | - |
| 1777831273 | 20.56° C | 30% | 1016.7 hPa | 0 mm | - | 5 W/m² | - |
| 1777830673 | 21.11° C | 29% | 1016.6 hPa | 0 mm | - | 11 W/m² | - |
| 1777830072 | 21.11° C | 28% | 1016.5 hPa | 0 mm | - | 16 W/m² | - |
| 1777829472 | 21.67° C | 27% | 1016.4 hPa | 0 mm | - | 19 W/m² | - |
| 1777828873 | 22.22° C | 25% | 1016.3 hPa | 0 mm | - | 23 W/m² | - |
| 1777828272 | 22.22° C | 25% | 1016.2 hPa | 0 mm | - | 25 W/m² | - |
| 1777827673 | 22.78° C | 24% | 1016.3 hPa | 0 mm | - | 28 W/m² | - |
| 1777827072 | 22.78° C | 24% | 1016.2 hPa | 0 mm | - | 30 W/m² | - |
| 1777826472 | 10° C | 61% | 1020.6 hPa | 0 mm | - | 178 W/m² | - |
| 1777825873 | 23.33° C | 23% | 1016.3 hPa | 0 mm | - | 193 W/m² | - |
| 1777825273 | 23.89° C | 23% | 1016.2 hPa | 0 mm | - | 226 W/m² | - |
| 1777824672 | 23.89° C | 22% | 1016.3 hPa | 0 mm | - | 258 W/m² | - |
| 1777824072 | 24.44° C | 22% | 1016.2 hPa | 0 mm | - | 286 W/m² | - |
| 1777823472 | 24.44° C | 22% | 1016.3 hPa | 0 mm | - | 315 W/m² | - |
| 1777822872 | 24.44° C | 21% | 1016.5 hPa | 0 mm | - | 346 W/m² | - |
| 1777822272 | 24.44° C | 21% | 1016.5 hPa | 0 mm | - | 372 W/m² | - |
| 1777821672 | 25° C | 21% | 1016.6 hPa | 0 mm | - | 406 W/m² | - |
| 1777821072 | 25° C | 21% | 1016.5 hPa | 0 mm | - | 430 W/m² | - |
| 1777820472 | 25° C | 20% | 1016.6 hPa | 0 mm | - | 455 W/m² | - |
| 1777819872 | 25.56° C | 21% | 1016.9 hPa | 0 mm | - | 483 W/m² | - |
| 1777819272 | 25.56° C | 20% | 1016.9 hPa | 0 mm | - | 513 W/m² | - |
* Rain latest hour (hover to see other rain measurements)
** Current wind speed in m/s (hover to see current wind gust speed)